sensor_id;sensor_type;location;lat;lon;timestamp;temperature;humidity
66184;DHT22;52989;48.796;9.806;2023-06-10T00:00:35;15.80;88.50
66184;DHT22;52989;48.796;9.806;2023-06-10T00:03:01;15.80;88.70
66184;DHT22;52989;48.796;9.806;2023-06-10T00:05:27;15.80;89.00
66184;DHT22;52989;48.796;9.806;2023-06-10T00:07:55;15.70;89.40
66184;DHT22;52989;48.796;9.806;2023-06-10T00:10:21;15.80;89.60
66184;DHT22;52989;48.796;9.806;2023-06-10T00:12:47;15.70;89.50
66184;DHT22;52989;48.796;9.806;2023-06-10T00:15:12;15.80;89.60
66184;DHT22;52989;48.796;9.806;2023-06-10T00:17:38;15.70;89.40
66184;DHT22;52989;48.796;9.806;2023-06-10T00:20:05;15.70;89.60
66184;DHT22;52989;48.796;9.806;2023-06-10T00:22:34;15.70;89.60
66184;DHT22;52989;48.796;9.806;2023-06-10T00:24:59;15.60;90.00
66184;DHT22;52989;48.796;9.806;2023-06-10T00:27:25;15.50;90.30
66184;DHT22;52989;48.796;9.806;2023-06-10T00:29:56;15.50;90.30
66184;DHT22;52989;48.796;9.806;2023-06-10T00:32:21;15.50;90.30
66184;DHT22;52989;48.796;9.806;2023-06-10T00:34:47;15.50;90.40
66184;DHT22;52989;48.796;9.806;2023-06-10T00:37:12;15.50;90.40
66184;DHT22;52989;48.796;9.806;2023-06-10T00:39:38;15.50;90.50
66184;DHT22;52989;48.796;9.806;2023-06-10T00:42:04;15.50;90.50
66184;DHT22;52989;48.796;9.806;2023-06-10T00:44:32;15.50;90.50
66184;DHT22;52989;48.796;9.806;2023-06-10T00:46:57;15.40;90.70
66184;DHT22;52989;48.796;9.806;2023-06-10T00:49:23;15.40;90.90
66184;DHT22;52989;48.796;9.806;2023-06-10T00:51:48;15.40;91.00
66184;DHT22;52989;48.796;9.806;2023-06-10T00:54:14;15.30;91.10
66184;DHT22;52989;48.796;9.806;2023-06-10T00:56:40;15.20;91.20
66184;DHT22;52989;48.796;9.806;2023-06-10T00:59:08;15.20;91.30
66184;DHT22;52989;48.796;9.806;2023-06-10T01:01:34;15.10;91.50
66184;DHT22;52989;48.796;9.806;2023-06-10T01:04:00;15.00;91.50
66184;DHT22;52989;48.796;9.806;2023-06-10T01:07:00;15.00;91.50
66184;DHT22;52989;48.796;9.806;2023-06-10T01:09:23;15.00;91.50
66184;DHT22;52989;48.796;9.806;2023-06-10T01:12:05;15.20;91.20
66184;DHT22;52989;48.796;9.806;2023-06-10T01:14:36;15.30;91.10
66184;DHT22;52989;48.796;9.806;2023-06-10T01:17:03;15.20;91.20
66184;DHT22;52989;48.796;9.806;2023-06-10T01:19:29;15.10;91.50
66184;DHT22;52989;48.796;9.806;2023-06-10T01:21:56;15.00;91.60
66184;DHT22;52989;48.796;9.806;2023-06-10T01:24:28;15.00;91.50
66184;DHT22;52989;48.796;9.806;2023-06-10T01:26:54;14.90;91.70
66184;DHT22;52989;48.796;9.806;2023-06-10T01:29:22;15.10;91.60
66184;DHT22;52989;48.796;9.806;2023-06-10T01:32:08;15.00;91.40
66184;DHT22;52989;48.796;9.806;2023-06-10T01:34:36;15.00;91.40
66184;DHT22;52989;48.796;9.806;2023-06-10T01:37:03;15.00;91.60
66184;DHT22;52989;48.796;9.806;2023-06-10T01:39:29;14.90;91.80
66184;DHT22;52989;48.796;9.806;2023-06-10T01:41:54;14.90;91.60
66184;DHT22;52989;48.796;9.806;2023-06-10T01:44:21;14.80;91.80
66184;DHT22;52989;48.796;9.806;2023-06-10T01:46:47;14.80;92.10
66184;DHT22;52989;48.796;9.806;2023-06-10T01:49:12;14.80;92.10
66184;DHT22;52989;48.796;9.806;2023-06-10T01:51:38;14.80;92.00
66184;DHT22;52989;48.796;9.806;2023-06-10T01:54:04;14.90;91.90
66184;DHT22;52989;48.796;9.806;2023-06-10T01:56:30;14.90;91.80
66184;DHT22;52989;48.796;9.806;2023-06-10T01:58:56;14.80;92.00
66184;DHT22;52989;48.796;9.806;2023-06-10T02:01:24;14.80;92.00
66184;DHT22;52989;48.796;9.806;2023-06-10T02:03:50;14.80;92.10
66184;DHT22;52989;48.796;9.806;2023-06-10T02:06:15;14.70;92.10
66184;DHT22;52989;48.796;9.806;2023-06-10T02:08:41;14.70;92.40
66184;DHT22;52989;48.796;9.806;2023-06-10T02:11:06;14.60;92.50
66184;DHT22;52989;48.796;9.806;2023-06-10T02:13:32;14.50;92.70
66184;DHT22;52989;48.796;9.806;2023-06-10T02:15:58;14.30;93.10
66184;DHT22;52989;48.796;9.806;2023-06-10T02:18:23;14.30;93.20
66184;DHT22;52989;48.796;9.806;2023-06-10T02:20:48;14.20;93.40
66184;DHT22;52989;48.796;9.806;2023-06-10T02:23:14;14.10;93.50
66184;DHT22;52989;48.796;9.806;2023-06-10T02:25:40;14.00;93.80
66184;DHT22;52989;48.796;9.806;2023-06-10T02:28:05;14.00;93.80
66184;DHT22;52989;48.796;9.806;2023-06-10T02:30:31;13.90;94.00
66184;DHT22;52989;48.796;9.806;2023-06-10T02:32:56;13.80;94.40
66184;DHT22;52989;48.796;9.806;2023-06-10T02:35:22;13.80;94.40
66184;DHT22;52989;48.796;9.806;2023-06-10T02:37:49;13.80;94.50
66184;DHT22;52989;48.796;9.806;2023-06-10T02:40:15;13.80;94.70
66184;DHT22;52989;48.796;9.806;2023-06-10T02:42:41;13.90;94.70
66184;DHT22;52989;48.796;9.806;2023-06-10T02:45:06;13.90;94.70
66184;DHT22;52989;48.796;9.806;2023-06-10T02:47:32;13.90;94.60
66184;DHT22;52989;48.796;9.806;2023-06-10T02:49:57;13.90;94.70
66184;DHT22;52989;48.796;9.806;2023-06-10T02:52:23;13.80;95.00
66184;DHT22;52989;48.796;9.806;2023-06-10T02:54:48;13.70;95.30
66184;DHT22;52989;48.796;9.806;2023-06-10T02:57:14;13.70;95.60
66184;DHT22;52989;48.796;9.806;2023-06-10T02:59:40;13.80;95.40
66184;DHT22;52989;48.796;9.806;2023-06-10T03:02:05;13.70;95.40
66184;DHT22;52989;48.796;9.806;2023-06-10T03:04:31;13.70;95.30
66184;DHT22;52989;48.796;9.806;2023-06-10T03:06:56;13.70;95.40
66184;DHT22;52989;48.796;9.806;2023-06-10T03:09:23;13.70;95.70
66184;DHT22;52989;48.796;9.806;2023-06-10T03:11:48;13.60;95.90
66184;DHT22;52989;48.796;9.806;2023-06-10T03:14:14;13.60;96.10
66184;DHT22;52989;48.796;9.806;2023-06-10T03:16:39;13.50;96.20
66184;DHT22;52989;48.796;9.806;2023-06-10T03:19:10;13.50;96.30
66184;DHT22;52989;48.796;9.806;2023-06-10T03:21:36;13.50;96.40
66184;DHT22;52989;48.796;9.806;2023-06-10T03:24:03;13.40;96.70
66184;DHT22;52989;48.796;9.806;2023-06-10T03:26:28;13.40;96.80
66184;DHT22;52989;48.796;9.806;2023-06-10T03:28:54;13.50;96.80
66184;DHT22;52989;48.796;9.806;2023-06-10T03:31:19;13.50;96.70
66184;DHT22;52989;48.796;9.806;2023-06-10T03:33:45;13.40;97.00
66184;DHT22;52989;48.796;9.806;2023-06-10T03:36:10;13.50;97.20
66184;DHT22;52989;48.796;9.806;2023-06-10T03:38:36;13.40;97.50
66184;DHT22;52989;48.796;9.806;2023-06-10T03:41:02;13.40;97.70
66184;DHT22;52989;48.796;9.806;2023-06-10T03:43:27;13.40;97.70
66184;DHT22;52989;48.796;9.806;2023-06-10T03:45:53;13.40;97.80
66184;DHT22;52989;48.796;9.806;2023-06-10T03:48:18;13.60;97.50
66184;DHT22;52989;48.796;9.806;2023-06-10T03:50:44;13.60;97.50
66184;DHT22;52989;48.796;9.806;2023-06-10T03:53:09;13.60;97.40
66184;DHT22;52989;48.796;9.806;2023-06-10T03:55:35;13.50;97.70
66184;DHT22;52989;48.796;9.806;2023-06-10T03:58:01;13.60;97.80
66184;DHT22;52989;48.796;9.806;2023-06-10T04:00:27;13.60;97.80
66184;DHT22;52989;48.796;9.806;2023-06-10T04:02:54;13.60;98.10
66184;DHT22;52989;48.796;9.806;2023-06-10T04:05:23;13.60;98.20
66184;DHT22;52989;48.796;9.806;2023-06-10T04:07:48;13.60;98.50
66184;DHT22;52989;48.796;9.806;2023-06-10T04:10:14;13.60;98.70
66184;DHT22;52989;48.796;9.806;2023-06-10T04:12:40;13.60;98.80
66184;DHT22;52989;48.796;9.806;2023-06-10T04:15:06;13.60;99.00
66184;DHT22;52989;48.796;9.806;2023-06-10T04:17:32;13.50;99.30
66184;DHT22;52989;48.796;9.806;2023-06-10T04:19:57;13.50;99.50
66184;DHT22;52989;48.796;9.806;2023-06-10T04:22:26;13.50;99.60
66184;DHT22;52989;48.796;9.806;2023-06-10T04:24:51;13.60;99.90
66184;DHT22;52989;48.796;9.806;2023-06-10T04:27:17;13.70;99.90
66184;DHT22;52989;48.796;9.806;2023-06-10T04:29:42;13.70;99.90
66184;DHT22;52989;48.796;9.806;2023-06-10T04:32:08;13.80;99.90
66184;DHT22;52989;48.796;9.806;2023-06-10T04:34:33;13.80;99.90
66184;DHT22;52989;48.796;9.806;2023-06-10T04:36:59;13.80;99.90
66184;DHT22;52989;48.796;9.806;2023-06-10T04:39:25;13.70;99.90
66184;DHT22;52989;48.796;9.806;2023-06-10T04:41:51;13.70;99.90
66184;DHT22;52989;48.796;9.806;2023-06-10T04:44:16;13.80;99.90
66184;DHT22;52989;48.796;9.806;2023-06-10T04:46:42;13.80;99.90
66184;DHT22;52989;48.796;9.806;2023-06-10T04:49:07;13.80;99.90
66184;DHT22;52989;48.796;9.806;2023-06-10T04:51:33;14.00;99.90
66184;DHT22;52989;48.796;9.806;2023-06-10T04:53:59;14.10;99.90
66184;DHT22;52989;48.796;9.806;2023-06-10T04:56:28;14.20;99.90
66184;DHT22;52989;48.796;9.806;2023-06-10T04:58:54;14.30;99.90
66184;DHT22;52989;48.796;9.806;2023-06-10T05:01:19;14.30;99.90
66184;DHT22;52989;48.796;9.806;2023-06-10T05:03:45;14.20;99.90
66184;DHT22;52989;48.796;9.806;2023-06-10T05:06:10;14.20;99.90
66184;DHT22;52989;48.796;9.806;2023-06-10T05:08:36;14.20;99.90
66184;DHT22;52989;48.796;9.806;2023-06-10T05:11:01;14.20;99.90
66184;DHT22;52989;48.796;9.806;2023-06-10T05:13:27;14.30;99.90
66184;DHT22;52989;48.796;9.806;2023-06-10T05:15:52;14.40;99.90
66184;DHT22;52989;48.796;9.806;2023-06-10T05:18:18;14.50;99.90
66184;DHT22;52989;48.796;9.806;2023-06-10T05:20:43;14.60;99.90
66184;DHT22;52989;48.796;9.806;2023-06-10T05:23:09;14.70;99.90
66184;DHT22;52989;48.796;9.806;2023-06-10T05:25:35;14.70;99.90
66184;DHT22;52989;48.796;9.806;2023-06-10T05:28:01;14.90;99.90
66184;DHT22;52989;48.796;9.806;2023-06-10T05:30:27;14.90;99.90
66184;DHT22;52989;48.796;9.806;2023-06-10T05:32:52;14.90;99.90
66184;DHT22;52989;48.796;9.806;2023-06-10T05:35:18;15.00;99.90
66184;DHT22;52989;48.796;9.806;2023-06-10T05:37:43;15.00;99.90
66184;DHT22;52989;48.796;9.806;2023-06-10T05:40:09;15.10;99.90
66184;DHT22;52989;48.796;9.806;2023-06-10T05:42:35;15.30;99.90
66184;DHT22;52989;48.796;9.806;2023-06-10T05:45:01;15.30;99.90
66184;DHT22;52989;48.796;9.806;2023-06-10T05:47:27;15.40;99.90
66184;DHT22;52989;48.796;9.806;2023-06-10T05:49:53;15.50;99.90
66184;DHT22;52989;48.796;9.806;2023-06-10T05:52:18;15.70;99.90
66184;DHT22;52989;48.796;9.806;2023-06-10T05:54:44;15.90;99.40
66184;DHT22;52989;48.796;9.806;2023-06-10T05:57:09;15.90;99.20
66184;DHT22;52989;48.796;9.806;2023-06-10T05:59:35;16.10;99.00
66184;DHT22;52989;48.796;9.806;2023-06-10T06:02:01;16.10;98.90
66184;DHT22;52989;48.796;9.806;2023-06-10T06:04:26;16.30;98.30
66184;DHT22;52989;48.796;9.806;2023-06-10T06:06:52;16.50;98.40
66184;DHT22;52989;48.796;9.806;2023-06-10T06:09:18;16.50;98.40
66184;DHT22;52989;48.796;9.806;2023-06-10T06:11:44;16.60;98.00
66184;DHT22;52989;48.796;9.806;2023-06-10T06:14:09;16.70;97.90
66184;DHT22;52989;48.796;9.806;2023-06-10T06:16:35;16.80;98.10
66184;DHT22;52989;48.796;9.806;2023-06-10T06:19:00;17.10;97.50
66184;DHT22;52989;48.796;9.806;2023-06-10T06:21:26;17.20;97.70
66184;DHT22;52989;48.796;9.806;2023-06-10T06:23:51;17.30;97.40
66184;DHT22;52989;48.796;9.806;2023-06-10T06:26:17;17.40;97.30
66184;DHT22;52989;48.796;9.806;2023-06-10T06:28:42;17.60;96.70
66184;DHT22;52989;48.796;9.806;2023-06-10T06:31:08;17.90;96.40
66184;DHT22;52989;48.796;9.806;2023-06-10T06:33:33;18.00;96.50
66184;DHT22;52989;48.796;9.806;2023-06-10T06:35:59;18.00;96.30
66184;DHT22;52989;48.796;9.806;2023-06-10T06:38:25;18.20;95.60
66184;DHT22;52989;48.796;9.806;2023-06-10T06:40:51;18.20;96.10
66184;DHT22;52989;48.796;9.806;2023-06-10T06:43:16;18.30;95.60
66184;DHT22;52989;48.796;9.806;2023-06-10T06:45:46;18.50;95.00
66184;DHT22;52989;48.796;9.806;2023-06-10T06:48:12;18.60;94.70
66184;DHT22;52989;48.796;9.806;2023-06-10T06:50:37;18.80;94.20
66184;DHT22;52989;48.796;9.806;2023-06-10T06:53:03;18.90;94.20
66184;DHT22;52989;48.796;9.806;2023-06-10T06:55:29;19.00;94.00
66184;DHT22;52989;48.796;9.806;2023-06-10T06:57:54;19.00;94.40
66184;DHT22;52989;48.796;9.806;2023-06-10T07:00:20;19.20;93.60
66184;DHT22;52989;48.796;9.806;2023-06-10T07:02:46;19.30;93.30
66184;DHT22;52989;48.796;9.806;2023-06-10T07:05:12;19.40;93.00
66184;DHT22;52989;48.796;9.806;2023-06-10T07:07:37;19.50;93.00
66184;DHT22;52989;48.796;9.806;2023-06-10T07:10:03;19.70;92.80
66184;DHT22;52989;48.796;9.806;2023-06-10T07:12:28;19.80;92.70
66184;DHT22;52989;48.796;9.806;2023-06-10T07:14:53;19.70;93.80
66184;DHT22;52989;48.796;9.806;2023-06-10T07:17:19;19.80;92.90
66184;DHT22;52989;48.796;9.806;2023-06-10T07:19:45;20.00;92.60
66184;DHT22;52989;48.796;9.806;2023-06-10T07:22:10;20.10;92.80
66184;DHT22;52989;48.796;9.806;2023-06-10T07:24:36;20.10;92.70
66184;DHT22;52989;48.796;9.806;2023-06-10T07:27:01;20.30;92.20
66184;DHT22;52989;48.796;9.806;2023-06-10T07:29:27;20.50;91.80
66184;DHT22;52989;48.796;9.806;2023-06-10T07:31:52;20.60;91.20
66184;DHT22;52989;48.796;9.806;2023-06-10T07:34:18;20.50;91.80
66184;DHT22;52989;48.796;9.806;2023-06-10T07:36:44;20.70;91.30
66184;DHT22;52989;48.796;9.806;2023-06-10T07:39:09;20.90;90.40
66184;DHT22;52989;48.796;9.806;2023-06-10T07:41:35;21.00;91.10
66184;DHT22;52989;48.796;9.806;2023-06-10T07:44:01;21.10;90.10
66184;DHT22;52989;48.796;9.806;2023-06-10T07:46:26;21.30;88.90
66184;DHT22;52989;48.796;9.806;2023-06-10T07:48:53;21.40;89.10
66184;DHT22;52989;48.796;9.806;2023-06-10T07:51:18;21.50;90.20
66184;DHT22;52989;48.796;9.806;2023-06-10T07:53:44;21.70;86.10
66184;DHT22;52989;48.796;9.806;2023-06-10T07:56:10;21.80;85.00
66184;DHT22;52989;48.796;9.806;2023-06-10T07:58:35;21.90;85.90
66184;DHT22;52989;48.796;9.806;2023-06-10T08:01:00;22.00;86.60
66184;DHT22;52989;48.796;9.806;2023-06-10T08:03:26;22.00;86.40
66184;DHT22;52989;48.796;9.806;2023-06-10T08:05:51;22.10;84.00
66184;DHT22;52989;48.796;9.806;2023-06-10T08:08:17;22.10;85.90
66184;DHT22;52989;48.796;9.806;2023-06-10T08:10:42;22.00;83.60
66184;DHT22;52989;48.796;9.806;2023-06-10T08:13:08;22.00;81.40
66184;DHT22;52989;48.796;9.806;2023-06-10T08:15:33;22.00;83.70
66184;DHT22;52989;48.796;9.806;2023-06-10T08:17:59;22.10;82.20
66184;DHT22;52989;48.796;9.806;2023-06-10T08:20:26;22.40;81.50
66184;DHT22;52989;48.796;9.806;2023-06-10T08:22:51;22.50;81.70
66184;DHT22;52989;48.796;9.806;2023-06-10T08:25:17;22.60;80.60
66184;DHT22;52989;48.796;9.806;2023-06-10T08:27:42;22.70;80.30
66184;DHT22;52989;48.796;9.806;2023-06-10T08:30:08;22.80;80.40
66184;DHT22;52989;48.796;9.806;2023-06-10T08:32:37;22.90;79.10
66184;DHT22;52989;48.796;9.806;2023-06-10T08:35:02;23.10;78.80
66184;DHT22;52989;48.796;9.806;2023-06-10T08:37:28;23.20;78.20
66184;DHT22;52989;48.796;9.806;2023-06-10T08:39:54;23.20;77.70
66184;DHT22;52989;48.796;9.806;2023-06-10T08:44:45;23.30;78.20
66184;DHT22;52989;48.796;9.806;2023-06-10T08:47:15;23.40;77.70
66184;DHT22;52989;48.796;9.806;2023-06-10T08:49:47;23.30;78.00
66184;DHT22;52989;48.796;9.806;2023-06-10T08:52:16;23.40;77.00
66184;DHT22;52989;48.796;9.806;2023-06-10T08:54:43;23.60;76.00
66184;DHT22;52989;48.796;9.806;2023-06-10T08:57:08;23.90;76.30
66184;DHT22;52989;48.796;9.806;2023-06-10T08:59:36;23.90;76.90
66184;DHT22;52989;48.796;9.806;2023-06-10T09:02:02;23.80;75.40
66184;DHT22;52989;48.796;9.806;2023-06-10T09:04:27;23.60;76.20
66184;DHT22;52989;48.796;9.806;2023-06-10T09:06:53;23.60;77.80
66184;DHT22;52989;48.796;9.806;2023-06-10T09:09:20;23.60;76.90
66184;DHT22;52989;48.796;9.806;2023-06-10T09:11:46;23.40;77.30
66184;DHT22;52989;48.796;9.806;2023-06-10T09:14:11;23.40;79.00
66184;DHT22;52989;48.796;9.806;2023-06-10T09:16:42;23.50;77.60
66184;DHT22;52989;48.796;9.806;2023-06-10T09:19:07;23.70;76.40
66184;DHT22;52989;48.796;9.806;2023-06-10T09:21:33;23.80;76.30
66184;DHT22;52989;48.796;9.806;2023-06-10T09:23:59;23.80;77.00
66184;DHT22;52989;48.796;9.806;2023-06-10T09:26:27;23.90;75.90
66184;DHT22;52989;48.796;9.806;2023-06-10T09:28:57;24.00;76.20
66184;DHT22;52989;48.796;9.806;2023-06-10T09:31:22;24.20;75.80
66184;DHT22;52989;48.796;9.806;2023-06-10T09:33:48;24.30;75.70
66184;DHT22;52989;48.796;9.806;2023-06-10T09:36:23;24.30;76.40
66184;DHT22;52989;48.796;9.806;2023-06-10T09:38:49;24.30;76.30
66184;DHT22;52989;48.796;9.806;2023-06-10T09:41:16;24.30;74.10
66184;DHT22;52989;48.796;9.806;2023-06-10T09:43:42;24.20;73.80
66184;DHT22;52989;48.796;9.806;2023-06-10T09:46:14;24.30;73.90
66184;DHT22;52989;48.796;9.806;2023-06-10T09:48:42;24.60;73.00
66184;DHT22;52989;48.796;9.806;2023-06-10T09:51:09;24.80;73.00
66184;DHT22;52989;48.796;9.806;2023-06-10T09:53:35;24.90;71.50
66184;DHT22;52989;48.796;9.806;2023-06-10T09:56:00;25.00;72.70
66184;DHT22;52989;48.796;9.806;2023-06-10T09:58:35;25.10;71.30
66184;DHT22;52989;48.796;9.806;2023-06-10T10:01:04;25.40;71.40
66184;DHT22;52989;48.796;9.806;2023-06-10T10:03:29;25.60;71.50
66184;DHT22;52989;48.796;9.806;2023-06-10T10:05:59;25.70;71.20
66184;DHT22;52989;48.796;9.806;2023-06-10T10:08:25;25.60;70.70
66184;DHT22;52989;48.796;9.806;2023-06-10T10:10:51;25.30;70.10
66184;DHT22;52989;48.796;9.806;2023-06-10T10:13:17;25.40;71.90
66184;DHT22;52989;48.796;9.806;2023-06-10T10:15:42;25.10;70.90
66184;DHT22;52989;48.796;9.806;2023-06-10T10:18:10;25.40;71.50
66184;DHT22;52989;48.796;9.806;2023-06-10T10:20:46;25.60;69.70
66184;DHT22;52989;48.796;9.806;2023-06-10T10:23:12;25.70;70.70
66184;DHT22;52989;48.796;9.806;2023-06-10T10:25:40;25.60;69.10
66184;DHT22;52989;48.796;9.806;2023-06-10T10:28:10;25.80;68.90
66184;DHT22;52989;48.796;9.806;2023-06-10T10:30:42;26.00;70.00
66184;DHT22;52989;48.796;9.806;2023-06-10T10:33:13;25.60;68.40
66184;DHT22;52989;48.796;9.806;2023-06-10T10:35:41;25.50;69.00
66184;DHT22;52989;48.796;9.806;2023-06-10T10:38:08;25.60;69.00
66184;DHT22;52989;48.796;9.806;2023-06-10T10:40:34;25.80;70.80
66184;DHT22;52989;48.796;9.806;2023-06-10T10:43:00;25.80;67.70
66184;DHT22;52989;48.796;9.806;2023-06-10T10:45:27;26.10;69.60
66184;DHT22;52989;48.796;9.806;2023-06-10T10:47:53;26.30;69.10
66184;DHT22;52989;48.796;9.806;2023-06-10T10:50:19;26.20;68.70
66184;DHT22;52989;48.796;9.806;2023-06-10T10:55:16;25.80;68.80
66184;DHT22;52989;48.796;9.806;2023-06-10T10:57:41;26.00;68.30
66184;DHT22;52989;48.796;9.806;2023-06-10T11:00:07;26.10;68.90
66184;DHT22;52989;48.796;9.806;2023-06-10T11:02:35;26.00;68.50
66184;DHT22;52989;48.796;9.806;2023-06-10T11:05:04;25.70;69.30
66184;DHT22;52989;48.796;9.806;2023-06-10T11:07:33;25.60;68.80
66184;DHT22;52989;48.796;9.806;2023-06-10T11:10:03;25.70;68.40
66184;DHT22;52989;48.796;9.806;2023-06-10T11:15:17;25.70;67.80
66184;DHT22;52989;48.796;9.806;2023-06-10T11:21:27;25.30;67.80
66184;DHT22;52989;48.796;9.806;2023-06-10T11:26:12;25.40;68.80
66184;DHT22;52989;48.796;9.806;2023-06-10T11:28:38;25.30;69.30
66184;DHT22;52989;48.796;9.806;2023-06-10T11:31:04;25.10;69.80
66184;DHT22;52989;48.796;9.806;2023-06-10T11:33:29;25.30;68.50
66184;DHT22;52989;48.796;9.806;2023-06-10T11:35:56;25.60;67.80
66184;DHT22;52989;48.796;9.806;2023-06-10T11:38:21;25.30;67.70
66184;DHT22;52989;48.796;9.806;2023-06-10T11:40:53;25.20;67.30
66184;DHT22;52989;48.796;9.806;2023-06-10T11:43:19;25.40;67.80
66184;DHT22;52989;48.796;9.806;2023-06-10T11:45:45;25.80;66.90
66184;DHT22;52989;48.796;9.806;2023-06-10T11:48:10;26.10;66.70
66184;DHT22;52989;48.796;9.806;2023-06-10T11:50:37;26.30;65.40
66184;DHT22;52989;48.796;9.806;2023-06-10T11:53:03;26.40;65.30
66184;DHT22;52989;48.796;9.806;2023-06-10T11:55:44;26.40;66.30
66184;DHT22;52989;48.796;9.806;2023-06-10T11:58:17;26.60;66.10
66184;DHT22;52989;48.796;9.806;2023-06-10T12:00:46;26.50;65.70
66184;DHT22;52989;48.796;9.806;2023-06-10T12:03:15;26.50;65.20
66184;DHT22;52989;48.796;9.806;2023-06-10T12:05:53;26.50;65.20
66184;DHT22;52989;48.796;9.806;2023-06-10T12:08:18;26.50;64.90
66184;DHT22;52989;48.796;9.806;2023-06-10T12:10:44;26.50;65.00
66184;DHT22;52989;48.796;9.806;2023-06-10T12:13:10;26.20;64.80
66184;DHT22;52989;48.796;9.806;2023-06-10T12:15:35;26.10;65.00
66184;DHT22;52989;48.796;9.806;2023-06-10T12:18:02;26.30;65.80
66184;DHT22;52989;48.796;9.806;2023-06-10T12:20:28;26.10;66.80
66184;DHT22;52989;48.796;9.806;2023-06-10T12:22:54;25.90;66.20
66184;DHT22;52989;48.796;9.806;2023-06-10T12:25:26;25.80;65.60
66184;DHT22;52989;48.796;9.806;2023-06-10T12:27:52;26.00;65.10
66184;DHT22;52989;48.796;9.806;2023-06-10T12:30:22;26.70;65.80
66184;DHT22;52989;48.796;9.806;2023-06-10T12:32:48;26.70;64.60
66184;DHT22;52989;48.796;9.806;2023-06-10T12:35:16;26.90;63.80
66184;DHT22;52989;48.796;9.806;2023-06-10T12:37:43;26.90;63.00
66184;DHT22;52989;48.796;9.806;2023-06-10T12:40:25;27.00;61.90
66184;DHT22;52989;48.796;9.806;2023-06-10T12:42:50;27.10;62.00
66184;DHT22;52989;48.796;9.806;2023-06-10T12:45:16;27.20;62.60
66184;DHT22;52989;48.796;9.806;2023-06-10T12:47:51;27.30;62.40
66184;DHT22;52989;48.796;9.806;2023-06-10T12:50:16;27.30;62.80
66184;DHT22;52989;48.796;9.806;2023-06-10T12:52:42;27.30;63.30
66184;DHT22;52989;48.796;9.806;2023-06-10T12:55:08;27.00;63.40
66184;DHT22;52989;48.796;9.806;2023-06-10T12:57:33;26.70;63.50
66184;DHT22;52989;48.796;9.806;2023-06-10T12:59:59;26.60;64.80
66184;DHT22;52989;48.796;9.806;2023-06-10T13:02:29;26.80;64.20
66184;DHT22;52989;48.796;9.806;2023-06-10T13:04:54;26.90;64.00
66184;DHT22;52989;48.796;9.806;2023-06-10T13:07:20;27.20;63.80
66184;DHT22;52989;48.796;9.806;2023-06-10T13:09:48;27.10;62.30
66184;DHT22;52989;48.796;9.806;2023-06-10T13:12:14;27.30;62.50
66184;DHT22;52989;48.796;9.806;2023-06-10T13:14:39;27.30;61.60
66184;DHT22;52989;48.796;9.806;2023-06-10T13:17:05;27.60;61.30
66184;DHT22;52989;48.796;9.806;2023-06-10T13:19:33;27.70;62.40
66184;DHT22;52989;48.796;9.806;2023-06-10T13:21:59;27.90;62.40
66184;DHT22;52989;48.796;9.806;2023-06-10T13:24:24;28.10;62.40
66184;DHT22;52989;48.796;9.806;2023-06-10T13:26:50;28.20;62.60
66184;DHT22;52989;48.796;9.806;2023-06-10T13:29:15;28.10;63.10
66184;DHT22;52989;48.796;9.806;2023-06-10T13:31:40;27.70;63.60
66184;DHT22;52989;48.796;9.806;2023-06-10T13:34:07;27.40;62.70
66184;DHT22;52989;48.796;9.806;2023-06-10T13:36:33;26.70;62.70
66184;DHT22;52989;48.796;9.806;2023-06-10T13:38:58;26.70;63.30
66184;DHT22;52989;48.796;9.806;2023-06-10T13:41:23;27.00;63.60
66184;DHT22;52989;48.796;9.806;2023-06-10T13:43:50;27.10;63.40
66184;DHT22;52989;48.796;9.806;2023-06-10T13:46:15;27.30;64.20
66184;DHT22;52989;48.796;9.806;2023-06-10T13:48:41;27.50;63.70
66184;DHT22;52989;48.796;9.806;2023-06-10T13:51:06;27.40;62.30
66184;DHT22;52989;48.796;9.806;2023-06-10T13:53:32;27.30;62.30
66184;DHT22;52989;48.796;9.806;2023-06-10T13:55:57;27.40;63.60
66184;DHT22;52989;48.796;9.806;2023-06-10T13:58:23;27.50;62.30
66184;DHT22;52989;48.796;9.806;2023-06-10T14:00:48;27.40;63.70
66184;DHT22;52989;48.796;9.806;2023-06-10T14:03:14;27.40;62.30
66184;DHT22;52989;48.796;9.806;2023-06-10T14:05:40;27.40;62.30
66184;DHT22;52989;48.796;9.806;2023-06-10T14:08:07;27.20;62.30
66184;DHT22;52989;48.796;9.806;2023-06-10T14:10:32;27.50;62.00
66184;DHT22;52989;48.796;9.806;2023-06-10T14:12:58;27.50;62.30
66184;DHT22;52989;48.796;9.806;2023-06-10T14:15:23;27.50;61.60
66184;DHT22;52989;48.796;9.806;2023-06-10T14:17:49;27.30;62.30
66184;DHT22;52989;48.796;9.806;2023-06-10T14:20:14;27.30;59.90
66184;DHT22;52989;48.796;9.806;2023-06-10T14:22:40;27.40;60.80
66184;DHT22;52989;48.796;9.806;2023-06-10T14:25:06;27.50;61.10
66184;DHT22;52989;48.796;9.806;2023-06-10T14:27:32;27.60;60.70
66184;DHT22;52989;48.796;9.806;2023-06-10T14:29:57;27.60;60.10
66184;DHT22;52989;48.796;9.806;2023-06-10T14:32:23;27.60;59.80
66184;DHT22;52989;48.796;9.806;2023-06-10T14:34:50;27.80;60.10
66184;DHT22;52989;48.796;9.806;2023-06-10T14:37:15;27.90;60.10
66184;DHT22;52989;48.796;9.806;2023-06-10T14:39:41;28.00;60.10
66184;DHT22;52989;48.796;9.806;2023-06-10T14:42:06;28.10;58.80
66184;DHT22;52989;48.796;9.806;2023-06-10T14:44:32;27.70;59.50
66184;DHT22;52989;48.796;9.806;2023-06-10T14:46:57;27.80;59.30
66184;DHT22;52989;48.796;9.806;2023-06-10T14:49:23;27.60;60.80
66184;DHT22;52989;48.796;9.806;2023-06-10T14:51:49;27.90;60.90
66184;DHT22;52989;48.796;9.806;2023-06-10T14:54:15;27.90;60.80
66184;DHT22;52989;48.796;9.806;2023-06-10T14:56:41;28.00;60.80
66184;DHT22;52989;48.796;9.806;2023-06-10T14:59:06;27.90;61.20
66184;DHT22;52989;48.796;9.806;2023-06-10T15:01:31;27.70;61.40
66184;DHT22;52989;48.796;9.806;2023-06-10T15:03:57;27.60;60.40
66184;DHT22;52989;48.796;9.806;2023-06-10T15:06:22;27.70;60.50
66184;DHT22;52989;48.796;9.806;2023-06-10T15:08:48;27.70;59.80
66184;DHT22;52989;48.796;9.806;2023-06-10T15:11:16;27.80;60.50
66184;DHT22;52989;48.796;9.806;2023-06-10T15:13:42;27.80;60.80
66184;DHT22;52989;48.796;9.806;2023-06-10T15:16:09;27.90;60.20
66184;DHT22;52989;48.796;9.806;2023-06-10T15:18:35;27.90;59.80
66184;DHT22;52989;48.796;9.806;2023-06-10T15:21:00;27.70;60.20
66184;DHT22;52989;48.796;9.806;2023-06-10T15:23:26;27.70;60.30
66184;DHT22;52989;48.796;9.806;2023-06-10T15:25:51;27.90;60.90
66184;DHT22;52989;48.796;9.806;2023-06-10T15:28:18;27.80;60.50
66184;DHT22;52989;48.796;9.806;2023-06-10T15:30:43;27.40;61.20
66184;DHT22;52989;48.796;9.806;2023-06-10T15:33:09;27.50;61.00
66184;DHT22;52989;48.796;9.806;2023-06-10T15:35:34;27.70;59.30
66184;DHT22;52989;48.796;9.806;2023-06-10T15:38:00;27.70;60.40